ADDS TAF Data INFO
IDs: Format: Raw Decoded Include METARs

Data at: 1245 UTC 19 Oct 2017

METAR for:KTCL (Tuscaloosa Rgnl, AL, US)
Text:KTCL 191153Z 00000KT 10SM CLR 07/07 A3027 RMK AO2 SLP249 T00720072 10100 20072 53013
Temperature: 7.2°C ( 45°F)
Dewpoint: 7.2°C ( 45°F) [RH = 100%]
Pressure (altimeter):30.27 inches Hg (1025.1 mb) [Sea level pressure: 1024.9 mb]
Winds:calm
Visibility:10 or more sm (16+ km)
Ceiling:at least 12,000 feet AGL
Clouds:sky clear below 12,000 feet AGL

TAF for:KTCL (Tuscaloosa Rgnl, AL, US) issued at 1132 UTC 19 Oct 2017
Text:KTCL 191132Z 1912/2012 00000KT P6SM SKC
Forecast period:1200 UTC 19 October 2017 to 1200 UTC 20 October 2017
Forecast type:FROM: standard forecast or significant change
Winds:calm
Visibility:6 or more sm (10+ km)
Ceiling:at least 12,000 feet AGL
Clouds:clear skies